Latest Coastal Weather Observations for Willis Island

IDQ60701

Issued at 6:21 am EST Friday 31 July 2015 (issued every 10 minutes, with the page automatically refreshed every 10 minutes)

About coastal observations | Map of coastal stations | Coastal observations for QLD | Marine services | Other Formats
Station Details ID: 200283 Name: WILLIS ISLAND Lat: -16.29 Lon: 149.97 Height: 9.29 m
Data from the previous 72 hours. | See also: Recent months at Willis Island
Date/Time
EST
Temp

°C
Wind Pressure Rain
since 9am
mm
Weather Cloud Vis
km
Sea
Height
m
Swell
Dir
 
Speed
knots
Gust
knots
hPa Trend Height
m
Period
s
Dir
31/06:00am 23.2 SE 21 25 1017.4 F 0.0 Fine Mostly cloudy 25 2 1.5 8 SE
31/05:30am 23.2 SE 21 24 1017.1 - 0.0 - - - - - - -
31/05:00am 23.2 SE 21 24 1016.8 - 0.0 - - - - - - -
31/04:30am 23.0 SE 21 25 1016.8 - 0.0 - - - - - - -
31/04:00am 23.0 SE 22 25 1016.9 - 0.0 - - - - - - -
31/03:54am 23.0 SE 22 25 1017.0 - 0.0 - - - - - - -
31/03:30am 22.1 S 18 22 1017.1 - 0.0 - - - - - - -
31/03:15am 22.2 S 20 22 1017.2 - 0.0 - - - - - - -
31/03:00am 22.4 SE 22 26 1017.3 - 0.0 - - - - - - -
31/02:30am 22.6 SE 22 25 1017.4 - 0.0 - - - - - - -
31/02:00am 22.8 SE 21 26 1017.6 - 0.0 - - - - - - -
31/01:30am 23.0 SSE 20 24 1017.9 - 0.0 - - - - - - -
31/01:00am 23.2 SSE 21 25 1018.3 - 0.0 - - - - - - -
31/12:30am 23.1 SSE 21 24 1018.4 - 0.0 - - - - - - -
31/12:00am 23.2 SE 21 25 1018.6 - 0.0 - - - - - - -
 
Date/Time
EST
Temp

°C
Wind Pressure Rain
since 9am
mm
Weather Cloud Vis
km
Sea
Height
m
Swell
Dir
 
Speed
knots
Gust
knots
hPa Trend Height
m
Period
s
Dir
30/11:30pm 23.2 SE 23 27 1018.7 - 0.0 - - - - - - -
30/11:00pm 23.3 SE 23 27 1018.7 - 0.0 - - - - - - -
30/10:30pm 23.6 SE 23 29 1018.6 - 0.0 - - - - - - -
30/10:00pm 23.5 SE 23 27 1018.6 - 0.0 - - - - - - -
30/09:30pm 23.3 SE 23 28 1018.7 - 0.0 - - - - - - -
30/09:00pm 23.3 SE 21 25 1018.7 F 0.0 Fine Partly cloudy 30 2 - - -
30/08:30pm 23.3 SE 23 27 1018.5 - 0.0 - - - - - - -
30/08:00pm 23.5 SE 21 24 1018.2 - 0.0 - - - - - - -
30/07:30pm 23.2 SE 20 24 1018.0 - 0.0 - - - - - - -
30/07:00pm 23.4 SE 20 25 1017.8 - 0.0 - - - - - - -
30/06:30pm 23.3 SE 21 24 1017.5 - 0.0 - - - - - - -
30/06:00pm 23.4 SE 20 24 1017.3 F 0.0 Fine Mostly clear 30 2 1.5 9 SE
30/05:30pm 23.5 SE 20 23 1017.0 - 0.0 - - - - - - -
30/05:00pm 23.8 SSE 19 24 1016.9 - 0.0 - - - - - - -
30/04:30pm 24.0 SE 22 26 1016.9 - 0.0 - - - - - - -
30/04:00pm 24.1 SE 22 26 1016.6 - 0.0 - - - - - - -
30/03:30pm 24.4 SE 23 27 1016.5 - 0.0 - - - - - - -
30/03:00pm 24.6 SE 22 26 1016.7 R 0.0 Haze Mostly clear 25 2 2.3 8 SE
30/02:30pm 25.1 SE 22 26 1017.0 - 0.0 - - - - - - -
30/02:00pm 25.2 SE 23 27 1017.3 - 0.0 - - - - - - -
30/01:30pm 25.3 SE 25 28 1017.4 - 0.0 - - - - - - -
30/01:00pm 25.2 SE 24 29 1017.6 - 0.0 - - - - - - -
30/12:30pm 25.6 SE 21 24 1018.0 - 0.0 - - - - - - -
30/12:00pm 25.7 SE 24 27 1018.3 F 0.0 Haze Partly cloudy 25 2 2.5 8 SE
30/11:30am 25.5 SE 22 26 1018.6 - 0.0 - - - - - - -
30/11:00am 25.5 ESE 21 24 1019.0 - 0.0 - - - - - - -
30/10:30am 25.4 SE 21 25 1019.3 - 0.0 - - - - - - -
30/10:00am 25.5 SE 21 24 1019.6 - 0.0 - - - - - - -
30/09:30am 25.2 SE 22 27 1019.5 - 0.0 - - - - - - -
30/09:00am 24.8 SE 24 28 1019.6 R 1.0 Fine Mostly clear 30 2 2.3 5 SE
30/08:30am 24.6 SE 24 28 1019.4 - 1.0 - - - - - - -
30/08:00am 24.2 SE 24 28 1019.2 - 1.0 - - - - - - -
30/07:30am 23.9 SE 24 28 1018.8 - 1.0 - - - - - - -
30/07:00am 23.6 SE 24 28 1018.5 - 1.0 - - - - - - -
30/06:30am 23.6 SE 24 31 1018.3 - 1.0 - - - - - - -
30/06:00am 23.4 SE 24 29 1017.9 F 1.0 Fine Mostly clear 30 2 - - SE
30/05:30am 23.3 SE 25 28 1017.7 - 1.0 - - - - - - -
30/05:00am 23.4 SE 25 30 1017.6 - 1.0 - - - - - - -
30/04:30am 23.5 SE 25 30 1017.7 - 1.0 - - - - - - -
30/04:00am 23.4 SE 25 30 1017.8 - 1.0 - - - - - - -
30/03:30am 23.6 SE 26 31 1017.8 - 1.0 - - - - - - -
30/03:00am 23.5 ESE 26 31 1017.8 - 1.0 - - - - - - -
30/02:30am 23.5 ESE 24 30 1018.2 - 1.0 - - - - - - -
30/02:00am 23.6 ESE 25 28 1018.6 - 1.0 - - - - - - -
30/01:30am 23.7 ESE 24 28 1018.9 - 1.0 - - - - - - -
30/01:00am 23.7 SE 26 30 1019.0 - 1.0 - - - - - - -
30/12:30am 23.8 ESE 26 31 1019.3 - 1.0 - - - - - - -
30/12:00am 23.8 SE 23 28 1019.6 - 1.0 - - - - - - -
 
Date/Time
EST
Temp

°C
Wind Pressure Rain
since 9am
mm
Weather Cloud Vis
km
Sea
Height
m
Swell
Dir
 
Speed
knots
Gust
knots
hPa Trend Height
m
Period
s
Dir
29/11:30pm 23.6 SE 26 31 1019.8 - 1.0 - - - - - - -
29/11:00pm 23.8 SE 25 30 1019.9 - 1.0 - - - - - - -
29/10:30pm 23.8 SE 27 31 1020.0 - 1.0 - - - - - - -
29/10:00pm 23.9 SE 27 33 1019.9 - 1.0 - - - - - - -
29/09:30pm 23.8 SE 28 34 1019.9 - 1.0 - - - - - - -
29/09:00pm 23.8 SE 29 33 1019.8 R 1.0 Fine Mostly cloudy 20 3 - - -
29/08:30pm 23.8 SE 29 34 1019.7 - 1.0 - - - - - - -
29/08:00pm 23.4 ESE 25 31 1019.6 - 0.8 - - - - - - -
29/07:30pm 23.2 SE 26 33 1019.4 - 0.8 - - - - - - -
29/07:00pm 24.2 SE 27 33 1018.9 - 0.8 - - - - - - -
29/06:30pm 24.1 SE 27 32 1018.4 - 0.8 - - - - - - -
29/06:00pm 24.0 SE 27 32 1018.1 F 0.8 Haze Partly cloudy 15 3 2.5 6 SE
29/05:30pm 24.1 SE 29 33 1017.8 - 0.8 - - - - - - -
29/05:00pm 24.3 SE 28 34 1017.7 - 0.8 - - - - - - -
29/04:30pm 24.1 SE 28 35 1017.4 - 0.8 - - - - - - -
29/04:00pm 23.6 SE 29 37 1017.2 - 0.8 - - - - - - -
29/03:30pm 24.3 SE 29 35 1017.3 - 0.8 - - - - - - -
29/03:00pm 24.6 SE 29 34 1017.4 F 0.8 Distant precip. Mostly cloudy 15 2 2.0 8 SE
29/02:30pm 24.4 SE 27 33 1017.5 - 0.8 - - - - - - -
29/02:00pm 24.3 SE 27 31 1017.6 - 0.8 - - - - - - -
29/01:30pm 22.6 SE 27 32 1018.2 - 0.8 - - - - - - -
29/01:12pm 22.6 SE 25 35 1018.3 - 0.8 - - - - - - -
29/01:00pm 22.8 SE 27 32 1018.3 - 0.8 - - - - - - -
29/12:30pm 22.5 SE 24 35 1018.9 - 0.0 - - - - - - -
29/12:28pm 24.4 SE 22 32 1018.9 - 0.0 - - - - - - -
29/12:00pm 24.4 ESE 28 32 1019.2 R 0.0 Distant precip. Mostly cloudy 15 2 1.8 5 SE
29/11:30am 24.8 SE 21 25 1019.3 - 0.0 - - - - - - -
29/11:00am 25.5 SE 23 27 1019.8 - 0.0 - - - - - - -
29/10:30am 26.1 ESE 23 27 1020.1 - 0.0 - - - - - - -
29/10:00am 25.8 SE 23 27 1020.1 - 0.0 - - - - - - -
29/09:30am 25.3 SE 25 31 1020.1 - 0.0 - - - - - - -
29/09:00am 25.6 ESE 25 29 1019.8 S 0.2 Distant precip. Partly cloudy 20 2 1.3 6 SE
29/08:30am 25.4 ESE 24 28 1019.6 - 0.2 - - - - - - -
29/08:00am 24.8 ESE 24 28 1019.4 - 0.2 - - - - - - -
29/07:30am 24.9 ESE 24 29 1019.2 - 0.2 - - - - - - -
29/07:00am 24.5 ESE 24 28 1018.8 - 0.2 - - - - - - -
29/06:30am 24.4 ESE 25 31 1018.6 - 0.2 - - - - - - -
29/06:00am 24.5 ESE 25 30 1018.3 F 0.2 Distant precip. Partly cloudy 20 1 0.8 - SE
29/05:30am 24.5 ESE 23 27 1018.1 - 0.2 - - - - - - -
29/05:00am 24.4 ESE 22 25 1017.9 - 0.2 - - - - - - -
29/04:30am 24.5 ESE 22 26 1017.9 - 0.2 - - - - - - -
29/04:00am 24.3 ESE 22 25 1017.9 - 0.2 - - - - - - -
29/03:30am 24.3 ESE 23 26 1017.9 - 0.2 - - - - - - -
29/03:00am 24.3 ESE 25 28 1018.2 - 0.2 - - - - - - -
29/02:30am 24.3 ESE 24 28 1018.4 - 0.2 - - - - - - -
29/02:00am 24.3 SE 24 28 1018.7 - 0.2 - - - - - - -
29/01:30am 24.3 SE 22 27 1018.8 - 0.2 - - - - - - -
29/01:00am 24.3 ESE 24 30 1019.1 - 0.2 - - - - - - -
29/12:30am 24.4 ESE 25 29 1019.3 - 0.2 - - - - - - -
29/12:00am 24.5 ESE 25 30 1019.6 - 0.2 - - - - - - -
 
Date/Time
EST
Temp

°C
Wind Pressure Rain
since 9am
mm
Weather Cloud Vis
km
Sea
Height
m
Swell
Dir
 
Speed
knots
Gust
knots
hPa Trend Height
m
Period
s
Dir
28/11:30pm 24.5 ESE 25 29 1019.7 - 0.2 - - - - - - -
28/11:00pm 24.5 ESE 24 29 1020.0 - 0.2 - - - - - - -
28/10:30pm 24.5 ESE 25 30 1020.1 - 0.2 - - - - - - -
28/10:00pm 24.6 SE 23 29 1020.3 - 0.2 - - - - - - -
28/09:30pm 24.6 ESE 24 27 1020.3 - 0.2 - - - - - - -
28/09:00pm 24.5 ESE 23 29 1020.1 R 0.2 Fine Mostly clear 30 2 - - -
28/08:30pm 24.5 SE 24 28 1019.9 - 0.2 - - - - - - -
28/08:00pm 24.5 SE 24 28 1019.6 - 0.2 - - - - - - -
28/07:30pm 24.5 SE 24 27 1019.5 - 0.2 - - - - - - -
28/07:00pm 24.6 SE 24 27 1019.0 - 0.2 - - - - - - -
28/06:30pm 24.5 SE 24 29 1018.6 - 0.2 - - - - - - -
28/06:00pm 24.6 SE 23 27 1018.3 R 0.2 Fine Mostly clear 30 2 1.6 9 SE
28/05:30pm 24.6 SE 25 28 1017.9 - 0.2 - - - - - - -
28/05:00pm 24.9 SE 23 27 1017.7 - 0.2 - - - - - - -
28/04:30pm 25.2 SE 23 27 1017.5 - 0.2 - - - - - - -
28/04:00pm 25.2 SE 24 27 1017.4 - 0.2 - - - - - - -
28/03:30pm 26.0 SE 23 27 1017.1 - 0.2 - - - - - - -
28/03:00pm 25.8 SE 22 26 1017.1 F 0.2 Haze Partly cloudy 25 2 1.8 9 SE
28/02:30pm 26.4 SE 23 25 1017.2 - 0.2 - - - - - - -
28/02:00pm 26.6 SE 22 25 1017.5 - 0.2 - - - - - - -
28/01:30pm 26.4 ESE 23 28 1017.9 - 0.2 - - - - - - -
28/01:00pm 26.4 ESE 24 27 1018.3 - 0.2 - - - - - - -
28/12:30pm 26.1 ESE 24 28 1018.6 - 0.2 - - - - - - -
28/12:00pm 26.0 SE 23 28 1019.0 F 0.2 Haze Mostly cloudy 20 2 1.7 8 SE
28/11:30am 25.8 ESE 24 28 1019.3 - 0.2 - - - - - - -
28/11:00am 26.0 ESE 21 27 1019.6 - 0.2 - - - - - - -
28/10:30am 26.9 ESE 22 26 1019.8 - 0.2 - - - - - - -
28/10:00am 26.1 SE 23 26 1019.8 - 0.2 - - - - - - -
28/09:30am 25.9 SE 23 26 1019.9 - 0.2 - - - - - - -
28/09:00am 25.1 SE 24 27 1020.2 R 0.2 Fine Mostly cloudy 30 2 1.5 7 SE
28/08:30am 24.8 SE 23 28 1019.9 - 0.2 - - - - - - -
28/08:00am 24.8 SE 23 26 1019.7 - 0.2 - - - - - - -
28/07:30am 24.6 SE 24 27 1019.3 - 0.2 - - - - - - -
28/07:00am 24.5 SE 22 26 1018.9 - 0.2 - - - - - - -
28/06:30am 24.3 SE 22 27 1018.7 - 0.2 - - - - - - -

Other Formats:

Comma delimited format used in spreadsheet applications
http://www.bom.gov.au/fwo/IDQ60701/IDQ60701.94299.axf

JavaScript Object Notation format (JSON) in row-major order
http://www.bom.gov.au/fwo/IDQ60701/IDQ60701.94299.json